createdAt,value
2022-10-31T00:00:02.283Z,13.80
2022-10-31T00:02:35.589Z,13.80
2022-10-31T00:05:07.728Z,13.80
2022-10-31T00:07:39.486Z,13.80
2022-10-31T00:10:11.164Z,13.70
2022-10-31T00:12:42.832Z,13.70
2022-10-31T00:15:14.565Z,13.60
2022-10-31T00:17:47.591Z,13.70
2022-10-31T00:20:19.401Z,13.60
2022-10-31T00:22:51.048Z,13.60
2022-10-31T00:25:22.699Z,13.50
2022-10-31T00:27:54.342Z,13.50
2022-10-31T00:30:26.118Z,13.50
2022-10-31T00:32:59.574Z,13.40
2022-10-31T00:35:31.509Z,13.40
2022-10-31T00:38:03.215Z,13.40
2022-10-31T00:40:34.853Z,13.30
2022-10-31T00:43:06.550Z,13.30
2022-10-31T00:45:38.348Z,13.30
2022-10-31T00:48:11.408Z,13.30
2022-10-31T00:50:43.425Z,13.20
2022-10-31T00:53:15.089Z,13.20
2022-10-31T00:55:46.982Z,13.20
2022-10-31T00:58:18.631Z,13.20
2022-10-31T01:00:56.328Z,13.20
2022-10-31T01:03:31.018Z,13.20
2022-10-31T01:06:04.006Z,13.20
2022-10-31T01:08:36.061Z,13.20
2022-10-31T01:11:08.821Z,13.20
2022-10-31T01:13:40.956Z,13.20
2022-10-31T01:16:14.052Z,13.20
2022-10-31T01:18:47.188Z,13.20
2022-10-31T01:21:19.865Z,13.20
2022-10-31T01:23:52.027Z,13.20
2022-10-31T01:26:25.058Z,13.20
2022-10-31T01:28:57.829Z,13.20
2022-10-31T01:31:30.557Z,13.20
2022-10-31T01:34:04.007Z,13.20
2022-10-31T01:36:36.346Z,13.20
2022-10-31T01:39:10.054Z,13.20
2022-10-31T01:41:43.125Z,13.20
2022-10-31T01:44:33.368Z,13.20
2022-10-31T01:47:06.403Z,13.20
2022-10-31T01:49:41.768Z,13.20
2022-10-31T01:52:14.931Z,13.20
2022-10-31T01:54:51.435Z,13.20
2022-10-31T01:57:23.292Z,13.20
2022-10-31T01:59:57.038Z,13.20
2022-10-31T02:02:30.007Z,13.20
2022-10-31T02:05:05.171Z,13.20
2022-10-31T02:07:39.020Z,13.20
2022-10-31T02:10:10.871Z,13.20
2022-10-31T02:12:42.844Z,13.20
2022-10-31T02:15:14.560Z,13.20
2022-10-31T02:17:46.504Z,13.20
2022-10-31T02:20:20.349Z,13.20
2022-10-31T02:23:02.592Z,13.20
2022-10-31T02:25:43.149Z,13.20
2022-10-31T02:28:26.056Z,13.20
2022-10-31T02:31:09.188Z,13.20
2022-10-31T02:33:42.463Z,13.20
2022-10-31T02:36:16.710Z,13.20
2022-10-31T02:38:52.431Z,13.20
2022-10-31T02:41:27.895Z,13.20
2022-10-31T02:44:05.504Z,13.10
2022-10-31T02:46:44.041Z,13.20
2022-10-31T02:49:18.979Z,13.10
2022-10-31T02:51:51.199Z,13.10
2022-10-31T02:54:24.083Z,13.10
2022-10-31T02:56:58.296Z,13.10
2022-10-31T02:59:31.758Z,13.10
2022-10-31T03:02:10.323Z,13.10
2022-10-31T03:04:50.311Z,13.10
2022-10-31T03:07:24.907Z,13.10
2022-10-31T03:10:02.016Z,13.00
2022-10-31T03:12:41.919Z,13.00
2022-10-31T03:15:20.350Z,13.00
2022-10-31T03:17:55.996Z,13.00
2022-10-31T03:20:29.825Z,13.00
2022-10-31T03:23:02.008Z,13.00
2022-10-31T03:25:35.532Z,13.00
2022-10-31T03:28:08.237Z,13.00
2022-10-31T03:30:42.445Z,12.90
2022-10-31T03:33:17.904Z,12.90
2022-10-31T03:35:51.902Z,12.90
2022-10-31T03:38:23.573Z,12.90
2022-10-31T03:40:56.944Z,12.80
2022-10-31T03:43:31.206Z,12.80
2022-10-31T03:46:02.986Z,12.80
2022-10-31T03:48:36.021Z,12.70
2022-10-31T03:51:12.100Z,12.70
2022-10-31T03:53:46.572Z,12.70
2022-10-31T03:56:20.159Z,12.70
2022-10-31T03:58:58.647Z,12.60
2022-10-31T04:01:31.521Z,12.60
2022-10-31T04:04:05.446Z,12.60
2022-10-31T04:06:41.503Z,12.60
2022-10-31T04:09:14.392Z,12.60
2022-10-31T04:11:46.985Z,12.60
2022-10-31T04:14:18.630Z,12.50
2022-10-31T04:16:55.080Z,12.50
2022-10-31T04:19:28.054Z,12.50
2022-10-31T04:21:59.656Z,12.50
2022-10-31T04:24:31.296Z,12.50
2022-10-31T04:27:02.996Z,12.40
2022-10-31T04:29:34.621Z,12.40
2022-10-31T04:32:06.261Z,12.40
2022-10-31T04:34:40.301Z,12.40
2022-10-31T04:37:11.942Z,12.40
2022-10-31T04:39:43.589Z,12.40
2022-10-31T04:42:15.265Z,12.40
2022-10-31T04:44:47.151Z,12.40
2022-10-31T04:47:18.817Z,12.40
2022-10-31T04:49:51.786Z,12.40
2022-10-31T04:52:23.439Z,12.30
2022-10-31T04:54:55.068Z,12.30
2022-10-31T04:57:26.679Z,12.30
2022-10-31T04:59:58.274Z,12.30
2022-10-31T05:02:29.985Z,12.30
2022-10-31T05:05:05.149Z,12.30
2022-10-31T05:07:39.069Z,12.30
2022-10-31T05:10:11.321Z,12.20
2022-10-31T05:12:47.100Z,12.20
2022-10-31T05:15:19.446Z,12.20
2022-10-31T05:17:51.295Z,12.20
2022-10-31T05:20:25.946Z,12.20
2022-10-31T05:22:58.036Z,12.20
2022-10-31T05:25:30.441Z,12.20
2022-10-31T05:28:02.421Z,12.20
2022-10-31T05:30:34.783Z,12.20
2022-10-31T05:33:06.352Z,12.10
2022-10-31T05:35:39.332Z,12.10
2022-10-31T05:38:11.015Z,12.20
2022-10-31T05:40:42.644Z,12.20
2022-10-31T05:43:14.248Z,12.20
2022-10-31T05:45:46.029Z,12.20
2022-10-31T05:48:17.739Z,12.10
2022-10-31T05:50:50.743Z,12.20
2022-10-31T05:53:22.363Z,12.10
2022-10-31T05:55:54.940Z,12.10
2022-10-31T05:58:26.523Z,12.10
2022-10-31T06:00:58.160Z,12.10
2022-10-31T06:03:30.982Z,12.10
2022-10-31T06:06:04.279Z,12.10
2022-10-31T06:08:36.631Z,12.10
2022-10-31T06:11:08.269Z,12.10
2022-10-31T06:13:39.849Z,12.10
2022-10-31T06:16:11.523Z,12.10
2022-10-31T06:18:43.148Z,12.10
2022-10-31T06:21:18.887Z,12.10
2022-10-31T06:23:51.030Z,12.10
2022-10-31T06:26:22.644Z,12.10
2022-10-31T06:28:54.272Z,12.10
2022-10-31T06:31:25.905Z,12.10
2022-10-31T06:33:57.826Z,12.10
2022-10-31T06:36:30.868Z,12.10
2022-10-31T06:39:05.298Z,12.10
2022-10-31T06:41:37.544Z,12.20
2022-10-31T06:44:09.199Z,12.20
2022-10-31T06:46:40.970Z,12.20
2022-10-31T06:49:12.669Z,12.20
2022-10-31T06:51:47.852Z,12.30
2022-10-31T06:54:19.600Z,12.30
2022-10-31T06:56:53.147Z,12.30
2022-10-31T06:59:25.254Z,12.30
2022-10-31T07:01:58.382Z,12.40
2022-10-31T07:04:30.133Z,12.40
2022-10-31T07:07:03.344Z,12.40
2022-10-31T07:09:35.003Z,12.40
2022-10-31T07:12:06.624Z,12.40
2022-10-31T07:14:38.283Z,12.40
2022-10-31T07:17:09.979Z,12.40
2022-10-31T07:19:41.617Z,12.40
2022-10-31T07:22:14.573Z,12.40
2022-10-31T07:24:46.218Z,12.50
2022-10-31T07:27:17.872Z,12.50
2022-10-31T07:29:49.509Z,12.50
2022-10-31T07:32:21.269Z,12.50
2022-10-31T07:34:52.960Z,12.50
2022-10-31T07:37:27.973Z,12.50
2022-10-31T07:40:02.108Z,12.50
2022-10-31T07:42:35.555Z,12.60
2022-10-31T07:45:08.465Z,12.60
2022-10-31T07:47:40.370Z,12.60
2022-10-31T07:50:13.475Z,12.60
2022-10-31T07:52:46.657Z,12.60
2022-10-31T07:55:18.251Z,12.70
2022-10-31T07:57:55.937Z,12.70
2022-10-31T08:00:27.926Z,12.70
2022-10-31T08:03:00.493Z,12.80
2022-10-31T08:05:33.454Z,12.80
2022-10-31T08:08:06.561Z,12.80
2022-10-31T08:10:38.394Z,12.90
2022-10-31T08:13:11.196Z,12.90
2022-10-31T08:15:43.148Z,13.00
2022-10-31T08:18:15.318Z,13.00
2022-10-31T08:20:46.964Z,13.10
2022-10-31T08:23:19.944Z,13.10
2022-10-31T08:25:52.098Z,13.20
2022-10-31T08:28:23.724Z,13.20
2022-10-31T08:30:55.307Z,13.30
2022-10-31T08:33:26.929Z,13.40
2022-10-31T08:35:58.578Z,13.40
2022-10-31T08:38:31.516Z,13.50
2022-10-31T08:41:03.140Z,13.60
2022-10-31T08:43:34.755Z,13.60
2022-10-31T08:46:07.477Z,13.60
2022-10-31T08:48:39.271Z,13.70
2022-10-31T08:51:12.518Z,13.70
2022-10-31T08:58:01.320Z,13.90
2022-10-31T09:02:00.957Z,14.00
2022-10-31T09:04:32.699Z,14.00
2022-10-31T09:07:20.974Z,14.10
2022-10-31T09:11:01.552Z,14.10
2022-10-31T09:13:35.404Z,14.20
2022-10-31T09:16:09.491Z,14.20
2022-10-31T09:18:41.228Z,14.30
2022-10-31T09:21:13.028Z,14.30
2022-10-31T09:23:44.767Z,14.40
2022-10-31T09:26:22.821Z,14.50
2022-10-31T09:28:56.691Z,14.50
2022-10-31T09:31:28.665Z,14.60
2022-10-31T09:34:00.372Z,14.60
2022-10-31T09:36:32.202Z,14.70
2022-10-31T09:39:04.382Z,14.70
2022-10-31T09:42:01.958Z,14.80
2022-10-31T09:44:46.609Z,14.90
2022-10-31T09:47:25.974Z,14.90
2022-10-31T09:50:11.407Z,15.00
2022-10-31T09:52:52.787Z,15.10
2022-10-31T09:55:51.435Z,15.20
2022-10-31T09:58:26.840Z,15.30
2022-10-31T10:01:01.261Z,15.40
2022-10-31T10:03:36.842Z,15.50
2022-10-31T10:06:14.904Z,15.50
2022-10-31T10:08:46.837Z,15.60
2022-10-31T10:11:43.323Z,15.70
2022-10-31T10:14:34.399Z,15.80
2022-10-31T10:17:16.216Z,15.90
2022-10-31T10:20:12.836Z,16.00
2022-10-31T10:22:52.802Z,16.10
2022-10-31T10:25:28.437Z,16.20
2022-10-31T10:28:09.605Z,16.30
2022-10-31T10:30:45.431Z,16.30
2022-10-31T10:33:25.987Z,16.40
2022-10-31T10:36:01.142Z,16.60
2022-10-31T10:38:38.225Z,16.60
2022-10-31T10:41:16.781Z,16.80
2022-10-31T10:43:50.666Z,16.90
2022-10-31T10:46:48.905Z,16.90
2022-10-31T10:49:27.685Z,17.10
2022-10-31T10:55:03.994Z,17.20
2022-10-31T10:57:55.101Z,17.40
2022-10-31T11:00:30.436Z,17.50
2022-10-31T11:03:05.869Z,17.50
2022-10-31T11:05:43.107Z,17.60
2022-10-31T11:08:27.462Z,17.70
2022-10-31T11:11:01.928Z,17.80
2022-10-31T11:13:34.694Z,17.90
2022-10-31T11:16:10.878Z,17.90
2022-10-31T11:18:47.044Z,17.90
2022-10-31T11:21:22.987Z,18.00
2022-10-31T11:24:03.920Z,18.00
2022-10-31T11:26:36.411Z,18.10
2022-10-31T11:29:16.177Z,18.10
2022-10-31T11:31:50.322Z,18.20
2022-10-31T11:34:30.752Z,18.30
2022-10-31T11:37:20.033Z,18.30
2022-10-31T11:39:54.682Z,18.40
2022-10-31T11:42:35.542Z,18.40
2022-10-31T11:45:16.207Z,18.40
2022-10-31T11:47:54.057Z,18.40
2022-10-31T11:50:41.018Z,18.50
2022-10-31T11:53:17.311Z,18.50
2022-10-31T11:56:03.949Z,18.50
2022-10-31T11:58:35.888Z,18.60
2022-10-31T12:01:24.609Z,18.60
2022-10-31T12:04:07.237Z,18.70
2022-10-31T12:06:42.035Z,18.70
2022-10-31T12:13:20.316Z,18.80
2022-10-31T12:15:56.962Z,18.90
2022-10-31T12:18:42.453Z,18.90
2022-10-31T12:21:31.444Z,19.00
2022-10-31T12:24:15.604Z,19.00
2022-10-31T12:26:57.582Z,19.10
2022-10-31T12:29:43.130Z,19.20
2022-10-31T12:32:30.067Z,19.20
2022-10-31T12:35:27.567Z,19.30
2022-10-31T12:38:26.899Z,19.40
2022-10-31T12:41:17.244Z,19.40
2022-10-31T12:43:57.343Z,19.40
2022-10-31T12:46:55.530Z,19.50
2022-10-31T12:49:40.606Z,19.50
2022-10-31T12:52:27.190Z,19.50
2022-10-31T12:55:17.563Z,19.50
2022-10-31T12:57:58.899Z,19.50
2022-10-31T13:00:38.293Z,19.60
2022-10-31T13:03:22.528Z,19.60
2022-10-31T13:05:58.767Z,19.60
2022-10-31T13:08:39.204Z,19.50
2022-10-31T13:11:15.381Z,19.50
2022-10-31T13:13:56.155Z,19.50
2022-10-31T13:16:35.050Z,19.50
2022-10-31T13:19:20.152Z,19.40
2022-10-31T13:22:00.491Z,19.40
2022-10-31T13:24:36.416Z,19.40
2022-10-31T13:27:14.963Z,19.40
2022-10-31T13:29:59.844Z,19.40
2022-10-31T13:32:42.820Z,19.40
2022-10-31T13:35:21.159Z,19.40
2022-10-31T13:38:05.346Z,19.30
2022-10-31T13:40:45.141Z,19.30
2022-10-31T13:43:35.835Z,19.30
2022-10-31T13:46:25.632Z,19.30
2022-10-31T13:48:57.457Z,19.30
2022-10-31T13:51:31.237Z,19.50
2022-10-31T13:54:20.093Z,19.80
2022-10-31T13:56:53.459Z,20.40
2022-10-31T13:59:31.150Z,21.00
2022-10-31T14:02:17.710Z,21.50
2022-10-31T14:07:27.404Z,22.20
2022-10-31T14:10:04.608Z,22.70
2022-10-31T14:12:39.925Z,22.90
2022-10-31T14:15:17.603Z,23.00
2022-10-31T14:17:53.880Z,23.00
2022-10-31T14:20:33.992Z,22.90
2022-10-31T14:23:14.018Z,22.70
2022-10-31T14:25:45.829Z,22.60
2022-10-31T14:28:22.460Z,22.40
2022-10-31T14:30:56.045Z,22.20
2022-10-31T14:33:31.299Z,22.00
2022-10-31T14:36:10.456Z,21.80
2022-10-31T14:38:56.955Z,21.70
2022-10-31T14:41:49.040Z,21.50
2022-10-31T14:44:46.432Z,21.40
2022-10-31T14:47:28.944Z,21.20
2022-10-31T14:50:27.287Z,21.10
2022-10-31T14:53:04.428Z,21.10
2022-10-31T14:55:43.804Z,20.90
2022-10-31T14:58:20.680Z,20.80
2022-10-31T15:00:58.003Z,20.60
2022-10-31T15:03:34.638Z,20.50
2022-10-31T15:06:14.824Z,20.40
2022-10-31T15:08:47.973Z,20.40
2022-10-31T15:11:21.390Z,20.30
2022-10-31T15:13:54.512Z,20.30
2022-10-31T15:16:29.395Z,20.20
2022-10-31T15:19:05.792Z,20.10
2022-10-31T15:21:43.061Z,20.10
2022-10-31T15:24:19.508Z,20.00
2022-10-31T15:26:53.555Z,19.80
2022-10-31T15:29:27.330Z,19.60
2022-10-31T15:32:01.414Z,19.60
2022-10-31T15:34:38.352Z,19.50
2022-10-31T15:37:13.165Z,19.40
2022-10-31T15:39:46.393Z,19.40
2022-10-31T15:42:22.774Z,19.40
2022-10-31T15:45:00.761Z,19.30
2022-10-31T15:47:34.156Z,19.30
2022-10-31T15:50:19.404Z,19.20
2022-10-31T15:52:52.800Z,18.90
2022-10-31T15:55:28.892Z,18.70
2022-10-31T15:58:05.253Z,18.60
2022-10-31T16:00:41.761Z,18.50
2022-10-31T16:03:25.604Z,18.50
2022-10-31T16:05:59.559Z,18.50
2022-10-31T16:08:37.159Z,18.50
2022-10-31T16:11:22.356Z,18.40
2022-10-31T16:14:00.167Z,18.40
2022-10-31T16:16:35.584Z,18.40
2022-10-31T16:19:17.385Z,18.30
2022-10-31T16:21:53.399Z,18.30
2022-10-31T16:24:28.669Z,18.20
2022-10-31T16:27:04.404Z,18.20
2022-10-31T16:29:40.653Z,18.20
2022-10-31T16:32:28.514Z,18.20
2022-10-31T16:35:02.502Z,18.10
2022-10-31T16:37:34.334Z,18.00
2022-10-31T16:40:09.244Z,18.00
2022-10-31T16:42:41.363Z,18.00
2022-10-31T16:45:17.566Z,17.90
2022-10-31T16:47:50.128Z,17.90
2022-10-31T16:50:24.907Z,17.80
2022-10-31T16:55:55.385Z,17.80
2022-10-31T16:58:29.168Z,17.80
2022-10-31T17:01:02.233Z,17.70
2022-10-31T17:03:34.087Z,17.70
2022-10-31T17:06:06.263Z,17.70
2022-10-31T17:08:37.983Z,17.50
2022-10-31T17:11:15.994Z,17.40
2022-10-31T17:13:47.916Z,17.40
2022-10-31T17:16:19.855Z,17.40
2022-10-31T17:18:51.677Z,17.30
2022-10-31T17:21:25.286Z,17.30
2022-10-31T17:23:57.159Z,17.30
2022-10-31T17:26:30.292Z,17.20
2022-10-31T17:29:03.472Z,17.20
2022-10-31T17:31:36.675Z,17.20
2022-10-31T17:34:09.591Z,17.20
2022-10-31T17:36:41.313Z,17.20
2022-10-31T17:39:13.063Z,17.10
2022-10-31T17:41:49.171Z,17.10
2022-10-31T17:44:20.977Z,17.10
2022-10-31T17:46:52.822Z,17.10
2022-10-31T17:49:24.546Z,17.00
2022-10-31T17:51:56.394Z,17.00
2022-10-31T17:54:28.102Z,16.90
2022-10-31T17:57:01.262Z,16.90
2022-10-31T17:59:33.015Z,16.90
2022-10-31T18:02:08.845Z,17.00
2022-10-31T18:04:40.932Z,17.20
2022-10-31T18:07:12.688Z,17.50
2022-10-31T18:09:44.595Z,17.70
2022-10-31T18:12:17.768Z,18.10
2022-10-31T18:14:50.837Z,18.30
2022-10-31T18:17:22.668Z,18.50
2022-10-31T18:19:54.419Z,18.70
2022-10-31T18:22:26.234Z,19.00
2022-10-31T18:25:01.860Z,19.10
2022-10-31T18:27:35.408Z,19.30
2022-10-31T18:30:08.237Z,19.40
2022-10-31T18:32:40.022Z,19.50
2022-10-31T18:35:11.740Z,19.70
2022-10-31T18:37:43.752Z,19.70
2022-10-31T18:40:16.417Z,19.90
2022-10-31T18:42:49.504Z,20.00
2022-10-31T18:45:41.107Z,20.00
2022-10-31T18:48:13.414Z,20.10
2022-10-31T18:50:45.295Z,20.20
2022-10-31T18:53:17.066Z,20.30
2022-10-31T18:55:50.228Z,20.30
2022-10-31T18:58:23.402Z,20.20
2022-10-31T19:00:55.774Z,20.10
2022-10-31T19:03:27.582Z,20.10
2022-10-31T19:05:59.621Z,20.20
2022-10-31T19:08:31.676Z,20.20
2022-10-31T19:11:05.204Z,19.90
2022-10-31T19:13:39.283Z,19.80
2022-10-31T19:16:13.997Z,19.80
2022-10-31T19:18:46.083Z,20.00
2022-10-31T19:21:18.200Z,20.00
2022-10-31T19:23:52.502Z,20.20
2022-10-31T19:26:25.074Z,20.20
2022-10-31T19:28:58.235Z,20.30
2022-10-31T19:31:30.068Z,20.30
2022-10-31T19:34:01.962Z,20.30
2022-10-31T19:36:36.070Z,20.30
2022-10-31T19:39:07.883Z,20.30
2022-10-31T19:41:40.004Z,20.20
2022-10-31T19:44:15.889Z,20.10
2022-10-31T19:46:53.456Z,20.10
2022-10-31T19:49:25.641Z,20.10
2022-10-31T19:51:57.463Z,19.90
2022-10-31T19:54:29.285Z,19.70
2022-10-31T19:57:01.047Z,19.70
2022-10-31T19:59:39.196Z,19.80
2022-10-31T20:02:19.068Z,19.90
2022-10-31T20:04:50.857Z,20.00
2022-10-31T20:07:22.629Z,20.00
2022-10-31T20:09:54.638Z,20.10
2022-10-31T20:12:26.649Z,20.20
2022-10-31T20:14:59.800Z,20.20
2022-10-31T20:17:31.566Z,20.20
2022-10-31T20:20:08.883Z,20.30
2022-10-31T20:22:40.910Z,20.30
2022-10-31T20:25:12.760Z,20.30
2022-10-31T20:27:44.508Z,20.10
2022-10-31T20:30:17.682Z,19.90
2022-10-31T20:32:50.209Z,19.70
2022-10-31T20:35:22.034Z,19.60
2022-10-31T20:37:53.752Z,19.60
2022-10-31T20:40:25.532Z,19.40
2022-10-31T20:42:57.715Z,19.20
2022-10-31T20:45:31.194Z,19.00
2022-10-31T20:48:03.220Z,18.80
2022-10-31T20:50:38.047Z,18.70
2022-10-31T20:53:09.831Z,18.70
2022-10-31T20:55:41.669Z,18.80
2022-10-31T20:58:13.424Z,18.90
2022-10-31T21:00:46.637Z,19.00
2022-10-31T21:03:19.091Z,19.10
2022-10-31T21:05:54.935Z,19.20
2022-10-31T21:08:28.745Z,19.30
2022-10-31T21:11:05.004Z,19.40
2022-10-31T21:13:40.604Z,19.40
2022-10-31T21:16:15.748Z,19.40
2022-10-31T21:18:51.998Z,19.50
2022-10-31T21:21:29.001Z,19.50
2022-10-31T21:24:07.178Z,19.50
2022-10-31T21:26:41.058Z,19.50
2022-10-31T21:29:13.703Z,19.50
2022-10-31T21:31:47.938Z,19.50
2022-10-31T21:34:19.715Z,19.50
2022-10-31T21:36:51.486Z,19.50
2022-10-31T21:39:23.311Z,19.40
2022-10-31T21:41:55.087Z,19.40
2022-10-31T21:44:26.810Z,19.40
2022-10-31T21:46:59.935Z,19.40
2022-10-31T21:49:31.707Z,19.40
2022-10-31T21:52:03.508Z,19.40
2022-10-31T21:54:37.167Z,19.40
2022-10-31T21:57:09.020Z,19.40
2022-10-31T21:59:45.666Z,19.40
2022-10-31T22:02:18.874Z,19.30
2022-10-31T22:04:51.328Z,19.30
2022-10-31T22:07:23.091Z,19.20
2022-10-31T22:09:54.863Z,19.10
2022-10-31T22:12:26.660Z,19.10
2022-10-31T22:14:58.412Z,19.10
2022-10-31T22:17:31.480Z,19.00
2022-10-31T22:20:03.347Z,19.00
2022-10-31T22:22:35.099Z,19.00
2022-10-31T22:25:07.841Z,19.00
2022-10-31T22:27:40.249Z,19.00
2022-10-31T22:30:12.317Z,19.10
2022-10-31T22:32:45.425Z,19.10
2022-10-31T22:35:17.348Z,19.20
2022-10-31T22:37:49.119Z,19.20
2022-10-31T22:40:20.866Z,19.20
2022-10-31T22:42:52.615Z,19.20
2022-10-31T22:45:24.409Z,19.20
2022-10-31T22:47:57.490Z,19.20
2022-10-31T22:50:29.196Z,19.20
2022-10-31T22:53:00.933Z,19.20
2022-10-31T22:55:34.993Z,19.20
2022-10-31T22:58:06.756Z,19.20
2022-10-31T23:00:38.513Z,19.20
2022-10-31T23:03:11.741Z,19.30
2022-10-31T23:05:43.515Z,19.30
2022-10-31T23:08:15.223Z,19.20
2022-10-31T23:10:46.980Z,19.10
2022-10-31T23:13:37.351Z,19.10
2022-10-31T23:16:11.154Z,19.10
2022-10-31T23:18:49.921Z,19.00
2022-10-31T23:21:43.667Z,19.00
2022-10-31T23:24:15.395Z,19.00
2022-10-31T23:27:05.620Z,19.00
2022-10-31T23:29:43.717Z,19.00
2022-10-31T23:32:19.455Z,19.10
2022-10-31T23:34:54.666Z,19.10
2022-10-31T23:37:27.774Z,19.10
2022-10-31T23:39:59.903Z,19.10
2022-10-31T23:42:31.719Z,19.20
2022-10-31T23:45:03.937Z,19.10
2022-10-31T23:47:38.338Z,19.20
2022-10-31T23:50:13.923Z,19.20
2022-10-31T23:52:45.681Z,19.20
2022-10-31T23:55:17.511Z,19.20
2022-10-31T23:57:49.313Z,19.20
